Time;durP1;ratioP1;P1;durP2;ratioP2;P2;SDS_P1;SDS_P2;PMS_P1;PMS_P2;Temp;Humidity;BMP_temperature;BMP_pressure;BME280_temperature;BME280_humidity;BME280_pressure;Samples;Min_cycle;Max_cycle;Signal;HPM_P1;HPM_P2
2023/04/14 00:00:33;;;;;;;;;;;;;;;;;;;;;
2023/04/14 00:03:38;;;;;;;5.75;3.10;;;;;;;5.69;100.00;97463.81;6124129;23;20484;-93
2023/04/14 00:06:18;;;;;;;5.88;2.70;;;;;;;5.58;100.00;97443.03;6110524;23;20088;-94
2023/04/14 00:08:59;;;;;;;6.10;3.00;;;;;;;5.52;100.00;97436.16;6110330;23;20462;-93
2023/04/14 00:11:50;;;;;;;4.50;2.55;;;;;;;5.60;100.00;97461.47;6109157;23;20441;-94
2023/04/14 00:14:48;;;;;;;6.93;3.05;;;;;;;5.34;100.00;97415.59;6103351;23;20057;-93
2023/04/14 00:18:02;;;;;;;7.93;3.13;;;;;;;5.46;100.00;97441.59;6110088;23;20065;-95
2023/04/14 00:21:13;;;;;;;5.90;3.00;;;;;;;5.44;100.00;97440.75;6090230;23;20025;-94
2023/04/14 00:23:55;;;;;;;6.15;3.22;;;;;;;5.20;100.00;97402.78;6076388;23;20052;-94
2023/04/14 00:26:54;;;;;;;5.25;2.80;;;;;;;5.28;100.00;97437.69;6109879;23;20021;-93
2023/04/14 00:30:04;;;;;;;7.40;3.38;;;;;;;5.12;100.00;97423.22;6100655;23;20014;-93
2023/04/14 00:32:41;;;;;;;6.07;3.05;;;;;;;4.89;100.00;97408.88;6111573;23;20025;-95
2023/04/14 00:35:57;;;;;;;6.95;2.97;;;;;;;4.85;100.00;97424.78;6179241;23;20042;-93
2023/04/14 00:43:03;;;;;;;9.30;3.30;;;;;;;4.36;100.00;97384.78;6211590;23;20024;-94
2023/04/14 00:58:32;;;;;;;;;;;;;;;;;;;;;
2023/04/14 01:01:04;;;;;;;8.82;3.50;;;;;;;5.26;100.00;97483.44;6142146;23;20021;-94
2023/04/14 01:03:51;;;;;;;6.07;2.88;;;;;;;5.32;100.00;97454.31;6141515;23;20165;-95
2023/04/14 01:06:36;;;;;;;7.53;2.92;;;;;;;5.35;100.00;97441.88;6138631;23;20028;-94
2023/04/14 01:09:15;;;;;;;5.55;2.92;;;;;;;5.70;100.00;97457.63;6167473;23;20025;-95
2023/04/14 01:12:37;;;;;;;6.78;2.88;;;;;;;5.71;100.00;97425.09;6159913;23;20032;-94
2023/04/14 01:15:54;;;;;;;5.63;2.90;;;;;;;5.73;100.00;97425.91;6127599;23;20025;-93
2023/04/14 01:19:30;;;;;;;7.25;2.70;;;;;;;5.85;100.00;97435.22;6140424;23;20021;-94
2023/04/14 01:22:43;;;;;;;;;;;;;;;;;;;;;
2023/04/14 01:25:50;;;;;;;5.63;2.13;;;;;;;5.82;100.00;97412.44;6142478;23;20027;-94
2023/04/14 01:28:53;;;;;;;3.75;2.40;;;;;;;5.93;100.00;97428.81;6140843;23;20045;-93
2023/04/14 01:38:13;;;;;;;5.60;2.60;;;;;;;5.87;100.00;97447.44;6279489;22;19911;-95
2023/04/14 01:40:47;;;;;;;6.32;2.50;;;;;;;5.81;100.00;97463.44;6281881;22;20020;-95
2023/04/14 01:43:15;;;;;;;4.43;2.13;;;;;;;5.92;100.00;97476.34;6283929;22;20019;-95
2023/04/14 01:45:50;;;;;;;3.88;2.10;;;;;;;5.81;100.00;97466.09;6284092;22;20020;-95
2023/04/14 01:48:19;;;;;;;4.45;1.92;;;;;;;5.83;100.00;97466.06;6285250;22;20023;-93
2023/04/14 01:50:47;;;;;;;2.35;1.75;;;;;;;5.92;100.00;97464.03;6285306;22;20425;-95
2023/04/14 01:53:32;;;;;;;5.73;2.00;;;;;;;5.99;100.00;97467.38;6286062;22;20441;-94
2023/04/14 01:56:03;;;;;;;3.25;1.80;;;;;;;5.82;100.00;97470.47;6284144;22;20023;-93
2023/04/14 01:58:36;;;;;;;1.70;1.30;;;;;;;5.80;100.00;97488.13;6286166;22;20023;-95
2023/04/14 02:01:05;;;;;;;2.78;1.50;;;;;;;5.55;100.00;97433.44;6284461;22;20106;-95
2023/04/14 02:03:38;;;;;;;1.30;1.20;;;;;;;5.48;100.00;97425.72;6285053;22;20019;-92
2023/04/14 02:06:06;;;;;;;2.80;1.40;;;;;;;5.78;100.00;97475.88;6281563;22;20033;-93
2023/04/14 02:08:38;;;;;;;0.93;0.93;;;;;;;5.42;100.00;97437.34;6281121;22;20329;-92
2023/04/14 02:11:06;;;;;;;1.83;1.20;;;;;;;5.51;100.00;97462.56;6281017;22;20026;-94
2023/04/14 02:13:33;;;;;;;0.95;0.95;;;;;;;5.48;100.00;97468.78;6280906;22;20350;-95
2023/04/14 02:16:00;;;;;;;2.03;0.80;;;;;;;5.52;100.00;97477.47;6280842;22;20019;-93
2023/04/14 02:18:28;;;;;;;0.98;0.98;;;;;;;5.61;100.00;97494.81;6281559;22;20027;-93
2023/04/14 02:20:56;;;;;;;1.08;1.00;;;;;;;5.54;100.00;97481.78;6282128;22;20079;-94
2023/04/14 02:23:22;;;;;;;1.02;0.95;;;;;;;5.31;100.00;97449.91;6280778;22;20345;-93
2023/04/14 02:25:54;;;;;;;1.55;1.05;;;;;;;5.39;100.00;97462.91;6279675;22;20019;-91
2023/04/14 02:28:26;;;;;;;1.25;1.10;;;;;;;5.43;100.00;97459.28;6279310;22;20020;-92
2023/04/14 02:30:55;;;;;;;1.25;1.13;;;;;;;5.52;100.00;97478.34;6278896;22;20016;-93
2023/04/14 02:33:26;;;;;;;1.20;1.05;;;;;;;5.42;100.00;97455.78;6280868;22;20031;-93
2023/04/14 02:36:00;;;;;;;1.88;1.23;;;;;;;5.55;100.00;97465.09;6281911;22;20016;-93
2023/04/14 02:38:32;;;;;;;1.92;1.40;;;;;;;5.51;100.00;97452.88;6282836;22;20442;-93
2023/04/14 02:41:03;;;;;;;2.45;1.48;;;;;;;5.35;100.00;97423.44;6281669;22;20020;-93
2023/04/14 02:43:32;;;;;;;1.70;1.35;;;;;;;5.53;100.00;97440.53;6281969;22;20023;-93
2023/04/14 02:46:01;;;;;;;2.88;1.50;;;;;;;5.59;100.00;97435.97;6280664;22;20016;-94
2023/04/14 02:48:28;;;;;;;;;;;;;;;5.70;100.00;97447.06;6281613;22;20438;-94
2023/04/14 02:50:56;;;;;;;1.70;1.30;;;;;;;5.45;100.00;97402.09;6280876;22;19915;-94
2023/04/14 02:53:24;;;;;;;1.43;1.33;;;;;;;5.45;100.00;97387.16;6281192;22;20025;-93
2023/04/14 02:55:51;;;;;;;1.10;1.10;;;;;;;5.45;100.00;97400.31;6281016;22;20023;-93
2023/04/14 02:58:19;;;;;;;1.98;1.10;;;;;;;5.31;100.00;97384.03;6282423;22;20496;-94
2023/04/14 03:00:46;;;;;;;1.17;1.10;;;;;;;5.17;100.00;97378.28;6280842;22;20046;-93
2023/04/14 03:03:14;;;;;;;1.00;1.00;;;;;;;5.24;100.00;97400.94;6281213;22;20078;-93
2023/04/14 03:05:42;;;;;;;2.25;1.25;;;;;;;5.20;100.00;97408.03;6280383;22;20020;-93
2023/04/14 03:08:10;;;;;;;1.50;1.40;;;;;;;5.23;100.00;97404.50;6281470;22;20019;-94
2023/04/14 03:10:37;;;;;;;1.38;1.27;;;;;;;5.12;100.00;97387.19;6281912;22;20065;-94
2023/04/14 03:13:05;;;;;;;1.95;1.25;;;;;;;5.21;100.00;97398.38;6282142;22;20019;-95
2023/04/14 03:15:35;;;;;;;1.55;1.30;;;;;;;5.22;100.00;97405.38;6282877;22;20515;-93
2023/04/14 03:18:02;;;;;;;1.85;1.30;;;;;;;5.13;100.00;97399.44;6283558;22;20031;-93
2023/04/14 03:20:31;;;;;;;1.00;1.00;;;;;;;5.11;100.00;97395.13;6284237;22;20019;-94
2023/04/14 03:23:03;;;;;;;1.20;1.10;;;;;;;5.12;100.00;97404.78;6284976;22;20150;-93
2023/04/14 03:25:33;;;;;;;1.95;1.35;;;;;;;5.37;100.00;97448.91;6298855;22;20418;-94
2023/04/14 03:28:14;;;;;;;2.08;1.40;;;;;;;5.28;100.00;97434.19;6296896;22;20020;-95
2023/04/14 03:31:10;;;;;;;1.63;1.33;;;;;;;5.40;100.00;97443.53;6294548;22;20015;-94
2023/04/14 03:34:03;;;;;;;3.03;1.33;;;;;;;5.40;100.00;97436.50;6295494;22;20118;-93
2023/04/14 03:36:31;;;;;;;4.28;2.00;;;;;;;5.31;100.00;97449.91;6297632;22;20000;-93
2023/04/14 03:39:02;;;;;;;3.60;1.80;;;;;;;5.08;100.00;97400.50;6288876;22;20061;-93
2023/04/14 03:41:31;;;;;;;3.10;1.65;;;;;;;5.28;100.00;97421.88;6282467;22;20041;-94
2023/04/14 03:43:57;;;;;;;5.32;2.20;;;;;;;5.20;100.00;97436.19;6280791;22;20027;-93
2023/04/14 03:46:27;;;;;;;2.85;1.85;;;;;;;5.19;100.00;97439.72;6280997;22;20030;-93
2023/04/14 03:48:55;;;;;;;1.73;1.30;;;;;;;5.10;100.00;97420.63;6282279;22;20030;-94
2023/04/14 03:51:26;;;;;;;1.30;1.20;;;;;;;5.22;100.00;97408.88;6282512;22;20049;-95
2023/04/14 03:53:55;;;;;;;1.73;1.58;;;;;;;5.28;100.00;97402.56;6286277;22;20393;-94
2023/04/14 03:56:22;;;;;;;;;;;;;;;5.48;100.00;97431.88;6286544;22;20031;-95
2023/04/14 03:58:51;;;;;;;3.00;1.60;;;;;;;5.26;100.00;97391.22;6285650;22;19922;-94
2023/04/14 04:01:18;;;;;;;2.03;1.55;;;;;;;5.18;100.00;97386.13;6284178;22;20019;-95
2023/04/14 04:03:47;;;;;;;1.42;1.30;;;;;;;5.16;100.00;97390.59;6284778;22;20552;-95
2023/04/14 04:06:13;;;;;;;2.63;1.43;;;;;;;5.11;100.00;97385.44;6283911;22;20422;-95
2023/04/14 04:08:41;;;;;;;2.40;1.25;;;;;;;5.24;100.00;97406.19;6283612;22;20110;-95
2023/04/14 04:11:08;;;;;;;2.00;1.40;;;;;;;5.25;100.00;97394.75;6283708;22;20095;-94
2023/04/14 04:13:36;;;;;;;7.32;3.92;;;;;;;5.24;100.00;97396.50;6288246;22;20016;-95
2023/04/14 04:16:06;;;;;;;7.63;4.70;;;;;;;5.17;100.00;97373.88;6284678;22;20024;-94
2023/04/14 04:18:34;;;;;;;;;;;;;;;5.40;100.00;97418.06;6284861;22;20110;-94
2023/04/14 04:21:02;;;;;;;2.65;1.80;;;;;;;5.17;100.00;97373.03;6283903;22;19915;-94
2023/04/14 04:23:32;;;;;;;2.17;1.40;;;;;;;5.04;100.00;97372.50;6284292;22;20029;-94
2023/04/14 04:25:58;;;;;;;2.30;1.38;;;;;;;5.26;100.00;97409.66;6283832;22;20065;-94
2023/04/14 04:28:26;;;;;;;1.48;1.38;;;;;;;5.04;100.00;97391.78;6284169;22;20020;-93
2023/04/14 04:30:55;;;;;;;2.45;1.60;;;;;;;4.84;100.00;97370.41;6283776;22;20012;-94
2023/04/14 04:33:22;;;;;;;2.25;1.50;;;;;;;4.94;100.00;97371.88;6284214;22;20027;-93
2023/04/14 04:35:48;;;;;;;1.98;1.60;;;;;;;4.90;100.00;97362.31;6284402;22;20016;-95
2023/04/14 04:38:16;;;;;;;3.03;1.80;;;;;;;4.94;100.00;97366.59;6284876;22;20026;-93
2023/04/14 04:40:42;;;;;;;2.33;1.48;;;;;;;4.99;100.00;97364.72;6284539;22;20026;-94
2023/04/14 04:43:08;;;;;;;2.75;1.70;;;;;;;5.06;100.00;97373.31;6283260;22;20434;-93
2023/04/14 04:46:20;;;;;;;2.38;1.48;;;;;;;5.04;100.00;97370.72;6283548;22;20400;-94
2023/04/14 04:48:47;;;;;;;1.50;1.40;;;;;;;5.21;100.00;97401.03;6199040;23;20363;-93
2023/04/14 04:51:14;;;;;;;1.67;1.40;;;;;;;5.35;100.00;97426.06;6197391;23;20016;-94
2023/04/14 04:53:41;;;;;;;1.55;1.40;;;;;;;5.09;100.00;97376.72;6196998;23;20059;-95
2023/04/14 04:56:07;;;;;;;1.90;1.50;;;;;;;5.12;100.00;97381.91;6197743;23;20529;-94
2023/04/14 04:58:33;;;;;;;1.65;1.48;;;;;;;5.15;100.00;97395.00;6197222;23;20020;-94
2023/04/14 05:01:06;;;;;;;1.60;1.27;;;;;;;5.41;100.00;97418.91;6196862;23;20020;-94
2023/04/14 05:03:32;;;;;;;2.95;1.60;;;;;;;5.15;100.00;97386.22;6197976;23;20020;-95
2023/04/14 05:05:58;;;;;;;1.58;1.48;;;;;;;5.18;100.00;97386.13;6198593;23;20031;-95
2023/04/14 05:08:24;;;;;;;1.42;1.30;;;;;;;5.19;100.00;97373.84;6199521;23;20021;-95
2023/04/14 05:10:52;;;;;;;2.53;1.50;;;;;;;5.18;100.00;97370.31;6200556;23;20132;-94
2023/04/14 05:13:17;;;;;;;3.78;1.58;;;;;;;5.19;100.00;97387.88;6199817;23;20021;-93
2023/04/14 05:15:44;;;;;;;2.10;1.35;;;;;;;5.05;100.00;97385.63;6199855;23;20032;-93
2023/04/14 05:18:10;;;;;;;1.50;1.40;;;;;;;5.12;100.00;97396.88;6200055;23;20079;-93
2023/04/14 05:20:39;;;;;;;3.42;1.48;;;;;;;5.33;100.00;97427.91;6200437;22;20043;-93
2023/04/14 05:23:06;;;;;;;2.22;1.58;;;;;;;5.36;100.00;97432.22;6199487;23;20171;-93
2023/04/14 05:25:32;;;;;;;1.80;1.50;;;;;;;5.17;100.00;97392.31;6268470;22;20058;-93
2023/04/14 05:28:00;;;;;;;2.03;1.40;;;;;;;5.31;100.00;97402.47;6290365;22;20018;-93
2023/04/14 05:30:26;;;;;;;2.45;1.30;;;;;;;5.51;100.00;97449.41;6291336;22;20462;-94
2023/04/14 05:32:52;;;;;;;3.15;1.40;;;;;;;5.47;100.00;97442.47;6290389;22;20023;-93
2023/04/14 05:35:19;;;;;;;3.05;1.40;;;;;;;5.24;100.00;97436.03;6289979;22;20020;-93
2023/04/14 05:37:45;;;;;;;2.55;1.40;;;;;;;5.31;100.00;97444.66;6293783;22;20042;-94
2023/04/14 05:40:11;;;;;;;2.28;1.50;;;;;;;4.98;100.00;97396.38;6287546;22;20016;-93
2023/04/14 05:42:39;;;;;;;2.30;1.42;;;;;;;5.47;100.00;97448.59;6288385;22;20028;-93
2023/04/14 05:45:08;;;;;;;3.13;1.70;;;;;;;5.20;100.00;97410.69;6287189;22;20102;-93
2023/04/14 05:47:34;;;;;;;2.15;1.50;;;;;;;4.92;100.00;97411.44;6289229;22;20020;-94
2023/04/14 05:50:02;;;;;;;4.10;1.73;;;;;;;4.97;100.00;97437.66;6289052;22;20016;-92
2023/04/14 05:52:28;;;;;;;2.33;1.60;;;;;;;5.11;100.00;97447.81;6288376;22;20015;-92
2023/04/14 05:54:54;;;;;;;2.10;1.60;;;;;;;5.10;100.00;97443.47;6289486;22;20054;-93
2023/04/14 05:57:20;;;;;;;3.25;1.75;;;;;;;5.14;100.00;97443.34;6289724;22;20030;-94
2023/04/14 05:59:46;;;;;;;3.25;1.67;;;;;;;5.31;100.00;97482.44;6291180;22;20011;-94
2023/04/14 06:02:14;;;;;;;3.03;1.80;;;;;;;5.00;100.00;97428.81;6291462;22;20027;-94
2023/04/14 06:04:40;;;;;;;3.20;2.00;;;;;;;5.14;100.00;97456.53;6291445;22;20020;-93
2023/04/14 06:07:06;;;;;;;3.72;1.98;;;;;;;5.08;100.00;97458.47;6290881;22;20020;-92
2023/04/14 06:09:32;;;;;;;3.15;2.17;;;;;;;4.97;100.00;97442.94;6291790;22;20037;-92
2023/04/14 06:11:58;;;;;;;5.18;2.10;;;;;;;5.03;100.00;97439.25;6290245;22;20016;-93
2023/04/14 06:14:24;;;;;;;5.78;2.40;;;;;;;5.03;100.00;97439.25;6291988;22;20019;-94
2023/04/14 06:16:50;;;;;;;3.88;2.40;;;;;;;4.94;100.00;97443.88;6291630;22;20025;-93
2023/04/14 06:19:18;;;;;;;3.92;2.13;;;;;;;5.17;100.00;97438.91;6290287;22;20027;-93
2023/04/14 06:21:45;;;;;;;2.92;2.08;;;;;;;5.41;100.00;97480.41;6291135;22;20016;-93
2023/04/14 06:24:11;;;;;;;2.58;2.03;;;;;;;5.49;100.00;97445.94;6289874;22;20024;-94
2023/04/14 06:26:40;;;;;;;6.22;2.20;;;;;;;5.68;100.00;97438.34;6288797;22;20019;-94
2023/04/14 06:29:07;;;;;;;3.38;1.90;;;;;;;6.10;100.00;97475.84;6289404;22;20449;-93
2023/04/14 06:31:33;;;;;;;3.65;2.00;;;;;;;6.26;100.00;97470.94;6290800;22;20080;-93
2023/04/14 06:33:59;;;;;;;3.20;1.80;;;;;;;6.61;100.00;97468.13;6286755;22;20019;-93
2023/04/14 06:36:27;;;;;;;3.55;2.40;;;;;;;7.09;100.00;97476.22;6283697;22;20499;-94
2023/04/14 06:38:53;;;;;;;4.75;2.22;;;;;;;7.30;100.00;97456.09;6285827;22;20042;-95
2023/04/14 06:41:19;;;;;;;3.15;2.10;;;;;;;7.45;100.00;97438.81;6285067;22;20016;-92
2023/04/14 06:43:45;;;;;;;3.67;2.40;;;;;;;7.98;100.00;97435.09;6287138;22;20031;-93
2023/04/14 06:46:11;;;;;;;4.18;2.50;;;;;;;8.89;100.00;97450.09;6290961;22;20016;-93
2023/04/14 06:48:37;;;;;;;3.45;2.30;;;;;;;8.57;100.00;97444.34;6292672;22;20083;-93
2023/04/14 06:51:09;;;;;;;4.22;2.40;;;;;;;8.47;100.00;97465.00;6289162;22;20015;-93
2023/04/14 06:53:36;;;;;;;4.65;2.40;;;;;;;8.22;100.00;97443.91;6283703;22;20106;-93
2023/04/14 06:56:02;;;;;;;6.03;2.20;;;;;;;8.13;100.00;97466.31;6283630;22;20449;-93
2023/04/14 06:58:28;;;;;;;6.53;2.40;;;;;;;8.31;100.00;97499.16;6286869;22;20020;-93
2023/04/14 07:00:56;;;;;;;4.93;2.30;;;;;;;8.05;100.00;97449.00;6283004;22;20019;-95
2023/04/14 07:03:38;;;;;;;4.35;2.30;;;;;;;8.14;100.00;97467.16;6291452;22;20016;-93
2023/04/14 07:06:20;;;;;;;7.45;2.58;;;;;;;8.08;100.00;97456.81;6294303;22;20023;-94
2023/04/14 07:09:07;;;;;;;4.82;2.08;;;;;;;8.89;100.00;97511.06;6291641;22;20027;-93
2023/04/14 07:11:46;;;;;;;3.80;2.17;;;;;;;8.86;99.85;97497.94;6291871;22;20035;-93
2023/04/14 07:14:19;;;;;;;3.90;1.90;;;;;;;8.94;99.80;97525.00;6291470;22;20045;-93
2023/04/14 07:16:53;;;;;;;2.42;1.80;;;;;;;8.79;99.04;97524.69;6290751;22;20019;-92
2023/04/14 07:19:48;;;;;;;3.20;1.98;;;;;;;8.14;99.55;97488.34;6291445;22;20039;-94
2023/04/14 07:22:20;;;;;;;4.03;1.92;;;;;;;8.16;100.00;97500.59;6292258;22;20023;-94
2023/04/14 07:25:09;;;;;;;3.65;1.95;;;;;;;8.51;100.00;97537.31;6293169;22;20037;-94
2023/04/14 07:27:42;;;;;;;3.25;1.80;;;;;;;8.73;100.00;97543.47;6290728;22;20015;-94
2023/04/14 07:30:19;;;;;;;3.70;1.98;;;;;;;8.74;100.00;97515.19;6291165;22;20016;-94
2023/04/14 07:33:00;;;;;;;2.70;1.92;;;;;;;8.80;100.00;97547.63;6291354;22;20035;-95
2023/04/14 07:35:32;;;;;;;3.63;2.03;;;;;;;8.81;99.05;97525.50;6291044;22;20019;-93
2023/04/14 07:38:14;;;;;;;4.43;2.05;;;;;;;9.32;98.34;97551.72;6290062;22;20023;-94
2023/04/14 07:40:54;;;;;;;3.90;2.10;;;;;;;9.70;95.35;97551.91;6290343;22;20020;-94
2023/04/14 07:43:26;;;;;;;2.55;1.80;;;;;;;9.32;95.31;97522.56;6291229;22;20016;-95
2023/04/14 07:46:03;;;;;;;3.05;1.92;;;;;;;9.34;94.72;97576.41;6291165;22;20042;-93
2023/04/14 07:48:32;;;;;;;5.38;2.30;;;;;;;9.09;96.72;97537.66;6292112;22;20020;-93
2023/04/14 07:51:05;;;;;;;3.28;2.08;;;;;;;9.05;97.26;97579.31;6291783;22;20084;-93
2023/04/14 07:53:42;;;;;;;3.78;2.30;;;;;;;8.79;97.12;97545.91;6291790;22;20023;-94
2023/04/14 07:56:20;;;;;;;4.22;2.70;;;;;;;9.15;96.36;97577.19;6291721;22;20079;-94
2023/04/14 07:58:47;;;;;;;5.22;2.63;;;;;;;9.02;95.00;97594.47;6288061;22;20047;-94
2023/04/14 08:01:13;;;;;;;3.67;2.20;;;;;;;8.55;94.77;97582.16;6285334;22;20015;-94
2023/04/14 08:03:49;;;;;;;3.50;1.90;;;;;;;8.49;95.94;97573.59;6285251;22;20015;-93
2023/04/14 08:06:23;;;;;;;3.42;2.03;;;;;;;8.77;97.69;97603.41;6285884;22;20020;-94
2023/04/14 08:08:50;;;;;;;3.85;2.00;;;;;;;8.92;94.93;97558.69;6285744;22;20015;-94
2023/04/14 08:11:20;;;;;;;4.43;2.10;;;;;;;9.23;92.98;97566.25;6285156;22;20392;-94
2023/04/14 08:13:52;;;;;;;2.30;1.80;;;;;;;9.12;92.25;97568.47;6284003;22;20023;-93
2023/04/14 08:16:19;;;;;;;3.08;1.73;;;;;;;9.41;95.60;97554.00;6284558;22;20015;-93
2023/04/14 08:18:49;;;;;;;3.42;1.83;;;;;;;9.96;93.76;97599.44;6285610;22;20020;-94
2023/04/14 08:21:34;;;;;;;2.72;1.67;;;;;;;9.80;87.88;97575.34;6286681;22;20448;-91
2023/04/14 08:24:13;;;;;;;2.72;1.95;;;;;;;9.64;88.32;97591.06;6286666;22;20468;-92
2023/04/14 08:27:00;;;;;;;3.58;2.00;;;;;;;9.70;86.91;97591.75;6286667;22;20046;-93
2023/04/14 08:29:29;;;;;;;4.10;2.50;;;;;;;9.80;84.79;97593.06;6287066;22;20020;-89
2023/04/14 08:36:10;;;;;;;2.08;1.70;;;;;;;10.13;80.32;97617.31;6184381;23;20024;-92
2023/04/14 08:38:59;;;;;;;3.63;2.13;;;;;;;10.13;82.08;97625.28;6197520;23;20147;-93
2023/04/14 08:41:48;;;;;;;3.42;2.00;;;;;;;10.77;81.02;97626.00;6196507;23;20017;-91
2023/04/14 08:44:37;;;;;;;4.93;1.95;;;;;;;11.26;80.96;97626.34;6196547;23;20108;-93
2023/04/14 08:47:25;;;;;;;3.17;1.67;;;;;;;11.22;79.77;97620.31;6215784;23;20023;-92
2023/04/14 08:50:04;;;;;;;4.30;2.90;;;;;;;11.36;80.17;97621.44;6197965;23;20029;-93
2023/04/14 08:55:45;;;;;;;;;;;;;;;;;;;;;
2023/04/14 08:58:21;;;;;;;2.92;1.50;;;;;;;11.93;72.38;97603.53;6195387;23;20028;-91
2023/04/14 09:01:04;;;;;;;2.78;1.70;;;;;;;11.57;73.10;97624.84;6195062;23;20027;-93
2023/04/14 09:04:51;;;;;;;;;;;;;;;;;;;;;
2023/04/14 09:08:11;;;;;;;;;;;;;;;;;;;;;
2023/04/14 09:10:59;;;;;;;3.47;1.60;;;;;;;11.23;76.27;97645.09;6079064;23;20022;-94
2023/04/14 09:13:37;;;;;;;4.47;1.90;;;;;;;11.04;74.40;97634.50;6167099;23;20045;-93
2023/04/14 09:16:19;;;;;;;4.07;2.10;;;;;;;11.18;75.85;97624.03;6167430;23;20464;-93
2023/04/14 09:18:51;;;;;;;4.03;1.98;;;;;;;11.58;74.67;97638.09;6169260;23;20093;-94
2023/04/14 09:24:34;;;;;;;4.15;2.00;;;;;;;11.30;76.92;97659.88;5119425;27;20369;-92
2023/04/14 09:27:10;;;;;;;2.55;1.70;;;;;;;11.21;78.07;97625.69;5117434;28;20054;-92
2023/04/14 09:32:50;;;;;;;3.03;1.83;;;;;;;11.68;72.43;97651.81;5102267;28;20431;-93
2023/04/14 09:35:21;;;;;;;1.88;1.55;;;;;;;11.87;73.73;97647.28;5116759;28;20052;-93
2023/04/14 09:37:50;;;;;;;2.47;1.83;;;;;;;11.35;74.38;97609.06;5117832;28;20048;-93
2023/04/14 09:40:58;;;;;;;3.17;1.88;;;;;;;11.92;74.13;97652.41;5117435;28;20048;-95
2023/04/14 09:47:08;;;;;;;4.40;2.10;;;;;;;12.62;70.52;97655.03;5080678;28;20052;-94
2023/04/14 09:49:49;;;;;;;3.67;1.75;;;;;;;12.58;67.77;97627.69;4961867;28;20062;-92
2023/04/14 09:52:47;;;;;;;3.13;1.77;;;;;;;12.68;66.63;97607.53;5001089;28;20042;-94
2023/04/14 09:56:03;;;;;;;3.55;1.98;;;;;;;13.12;64.15;97649.63;5001571;28;20169;-93
2023/04/14 09:59:10;;;;;;;2.28;1.80;;;;;;;12.42;67.13;97616.09;5014066;28;20093;-93
2023/04/14 10:02:46;;;;;;;3.53;1.90;;;;;;;12.50;69.13;97643.22;4977042;28;20157;-93
2023/04/14 10:07:41;;;;;;;2.38;1.50;;;;;;;11.91;65.09;97598.28;4998359;28;20050;-92
2023/04/14 10:09:45;;;;;;;4.13;1.85;;;;;;;11.54;69.55;97617.00;4984183;28;20109;-93
2023/04/14 10:13:00;;;;;;;4.53;1.70;;;;;;;11.28;71.15;97598.72;5017335;28;20040;-94
2023/04/14 10:15:37;;;;;;;6.85;2.13;;;;;;;12.16;67.29;97601.47;5073331;28;20444;-93
2023/04/14 10:18:46;;;;;;;2.67;1.70;;;;;;;13.30;64.81;97629.09;5136820;28;20040;-92
2023/04/14 10:21:59;;;;;;;2.30;1.40;;;;;;;13.56;59.90;97616.91;5117819;28;20127;-93
2023/04/14 10:24:48;;;;;;;2.53;1.60;;;;;;;14.21;59.24;97621.16;5087644;28;20044;-92
2023/04/14 10:27:58;;;;;;;1.25;1.15;;;;;;;13.52;58.50;97639.41;5020600;28;20107;-94
2023/04/14 10:30:57;;;;;;;1.77;1.25;;;;;;;13.53;59.38;97634.91;5020918;28;20045;-93
2023/04/14 10:33:38;;;;;;;1.60;1.30;;;;;;;13.31;55.26;97614.78;5017376;28;20038;-94
2023/04/14 10:36:30;;;;;;;3.03;1.60;;;;;;;12.57;59.31;97615.28;5005172;28;20046;-92
2023/04/14 10:39:39;;;;;;;;;;;;;;;;;;;;;
2023/04/14 10:50:06;;;;;;;2.88;1.50;;;;;;;11.59;64.69;97609.66;4947567;28;20066;-94
2023/04/14 10:52:38;;;;;;;1.90;1.48;;;;;;;10.85;66.54;97621.19;4875988;29;20049;-95
2023/04/14 10:55:11;;;;;;;1.80;1.30;;;;;;;10.83;68.14;97652.31;4872639;29;20056;-93
2023/04/14 10:58:14;;;;;;;1.58;1.08;;;;;;;10.63;70.41;97632.81;4876716;29;20045;-93
2023/04/14 11:01:26;;;;;;;;;;;;;;;;;;;;;
2023/04/14 11:04:24;;;;;;;1.00;1.00;;;;;;;10.66;71.47;97645.94;4937870;28;20151;-94
2023/04/14 11:06:54;;;;;;;1.85;1.20;;;;;;;10.44;74.54;97614.16;4963933;28;20131;-93
2023/04/14 11:10:19;;;;;;;1.95;1.30;;;;;;;10.32;76.44;97621.81;4963491;28;20082;-93
2023/04/14 11:13:13;;;;;;;1.40;1.30;;;;;;;10.21;75.89;97646.19;4825391;29;20055;-95
2023/04/14 11:15:52;;;;;;;2.00;1.40;;;;;;;10.16;76.51;97645.53;4815691;29;20095;-95
2023/04/14 11:19:43;;;;;;;;;;;;;;;;;;;;;
2023/04/14 11:23:12;;;;;;;;;;;;;;;;;;;;;
2023/04/14 11:26:13;;;;;;;1.40;1.30;;;;;;;10.92;69.40;97638.56;4921384;29;19925;-93
2023/04/14 11:30:08;;;;;;;2.00;1.50;;;;;;;11.23;70.49;97651.31;4942679;29;20044;-93
2023/04/14 11:32:46;;;;;;;1.85;1.60;;;;;;;12.10;70.38;97639.94;4873808;29;20057;-93
2023/04/14 11:35:35;;;;;;;3.50;1.80;;;;;;;11.64;70.73;97623.59;4910242;29;20044;-93
2023/04/14 11:38:53;;;;;;;1.38;1.25;;;;;;;11.87;66.29;97641.09;4929003;29;20132;-94
2023/04/14 11:42:21;;;;;;;;;;;;;;;;;;;;;
2023/04/14 11:45:45;;;;;;;1.55;1.45;;;;;;;11.96;67.25;97606.03;4886381;29;20177;-94
2023/04/14 11:49:05;;;;;;;;;;;;;;;;;;;;;
2023/04/14 11:52:45;;;;;;;4.47;2.22;;;;;;;12.93;64.25;97591.06;4946395;29;20201;-95
2023/04/14 11:59:39;;;;;;;4.38;2.38;;;;;;;13.69;64.13;97609.06;4943920;29;20078;-93
2023/04/14 12:02:25;;;;;;;3.30;2.00;;;;;;;13.97;61.00;97575.38;4906634;29;20043;-95
2023/04/14 12:05:20;;;;;;;;;;;;;;;;;;;;;
2023/04/14 12:08:49;;;;;;;2.65;1.60;;;;;;;13.72;53.09;97614.19;4929413;29;20130;-95
2023/04/14 12:11:34;;;;;;;1.90;1.45;;;;;;;13.24;54.75;97632.06;4952885;28;20057;-96
2023/04/14 12:14:45;;;;;;;2.08;1.48;;;;;;;13.31;55.95;97628.13;5044871;28;20055;-92
2023/04/14 12:18:06;;;;;;;;;;;;;;;;;;;;;
2023/04/14 12:25:16;;;;;;;4.75;2.58;;;;;;;13.44;54.14;97630.97;5002355;28;20471;-94
2023/04/14 12:36:03;;;;;;;2.15;1.58;;;;;;;13.72;53.00;97570.59;4951304;29;20527;-94
2023/04/14 12:38:40;;;;;;;2.58;1.50;;;;;;;14.06;53.72;97598.00;4937263;29;20048;-95
2023/04/14 12:41:40;;;;;;;2.78;1.65;;;;;;;13.92;49.71;97622.88;4940085;29;20043;-93
2023/04/14 12:48:13;;;;;;;3.10;1.55;;;;;;;13.86;52.35;97583.16;4935288;29;20048;-95
2023/04/14 12:51:15;;;;;;;1.85;1.40;;;;;;;14.03;51.64;97622.22;4851969;29;20050;-92
2023/04/14 12:54:06;;;;;;;1.45;1.35;;;;;;;14.09;50.25;97629.88;4874172;29;20085;-94
2023/04/14 12:56:42;;;;;;;1.70;1.50;;;;;;;14.06;51.01;97606.88;4882231;29;20044;-93
2023/04/14 12:59:45;;;;;;;2.55;1.50;;;;;;;14.09;52.70;97614.69;4885746;29;20083;-94
2023/04/14 13:02:32;;;;;;;2.83;1.70;;;;;;;13.98;51.82;97583.28;4886935;29;20119;-94
2023/04/14 13:06:01;;;;;;;2.53;1.77;;;;;;;14.56;51.62;97576.22;4889051;29;20044;-94
2023/04/14 13:08:44;;;;;;;2.90;2.00;;;;;;;14.26;50.21;97576.25;4917850;29;20103;-93
2023/04/14 13:31:52;;;;;;;2.38;1.70;;;;;;;14.78;50.16;97599.81;1392366;22;20436;-91
2023/04/14 13:34:31;;;;;;;2.22;1.58;;;;;;;15.15;48.08;97596.63;4999905;28;20077;-95
2023/04/14 13:37:20;;;;;;;1.60;1.42;;;;;;;14.65;47.26;97576.59;5019435;28;20046;-94
2023/04/14 13:40:01;;;;;;;2.38;1.50;;;;;;;14.35;48.62;97589.06;4999266;28;20511;-92
2023/04/14 13:42:33;;;;;;;3.17;1.90;;;;;;;13.69;49.09;97600.19;5006071;28;20050;-93
2023/04/14 13:45:02;;;;;;;2.75;1.63;;;;;;;13.46;51.14;97607.69;5019627;28;20049;-93
2023/04/14 13:47:28;;;;;;;4.43;2.30;;;;;;;13.49;50.29;97585.31;5003763;28;20062;-94
2023/04/14 13:50:43;;;;;;;4.22;2.53;;;;;;;13.43;50.65;97567.84;5004088;28;20556;-95
2023/04/14 13:53:40;;;;;;;3.15;1.67;;;;;;;13.69;51.03;97619.75;5003412;28;20133;-94
2023/04/14 13:57:22;;;;;;;;;;;;;;;;;;;;;
2023/04/14 14:03:41;;;;;;;1.92;1.50;;;;;;;13.41;49.49;97569.72;4975736;28;20050;-93
2023/04/14 14:06:18;;;;;;;2.13;1.50;;;;;;;13.62;49.17;97572.97;4981709;28;20125;-93
2023/04/14 14:09:38;;;;;;;2.42;1.60;;;;;;;13.66;49.30;97595.88;4976202;28;20577;-95
2023/04/14 14:13:12;;;;;;;2.53;1.60;;;;;;;13.11;49.49;97577.66;4984450;28;20049;-94
2023/04/14 14:15:41;;;;;;;1.73;1.63;;;;;;;12.82;48.98;97577.47;4901298;29;20051;-94
2023/04/14 14:18:54;;;;;;;2.05;1.50;;;;;;;12.69;48.92;97579.09;4905656;29;20072;-95
2023/04/14 14:21:58;;;;;;;2.20;1.50;;;;;;;12.61;50.26;97573.31;4909383;29;20059;-92
2023/04/14 14:24:59;;;;;;;2.50;1.65;;;;;;;12.61;50.32;97573.31;4907407;29;20076;-94
2023/04/14 14:27:27;;;;;;;1.92;1.40;;;;;;;12.83;49.68;97616.53;4903213;29;20076;-93
2023/04/14 14:30:04;;;;;;;2.42;1.60;;;;;;;12.58;50.84;97573.47;4892465;29;20128;-93
2023/04/14 14:32:36;;;;;;;2.88;1.52;;;;;;;12.64;51.94;97582.03;4898538;29;20044;-94
2023/04/14 14:38:23;;;;;;;4.20;1.75;;;;;;;12.81;51.53;97596.22;4928898;29;20044;-94